createdAt,value
2019-03-24T00:00:58.921Z,6.87
2019-03-24T00:03:25.707Z,6.47
2019-03-24T00:05:52.436Z,5.87
2019-03-24T00:08:19.285Z,5.03
2019-03-24T00:10:46.045Z,5.47
2019-03-24T00:13:12.885Z,5.87
2019-03-24T00:15:39.666Z,6.40
2019-03-24T00:18:06.411Z,5.97
2019-03-24T00:20:33.059Z,5.97
2019-03-24T00:22:59.989Z,5.17
2019-03-24T00:25:26.715Z,6.20
2019-03-24T00:27:53.371Z,6.20
2019-03-24T00:30:20.213Z,6.53
2019-03-24T00:32:47.109Z,6.40
2019-03-24T00:35:13.986Z,5.80
2019-03-24T00:37:40.748Z,6.90
2019-03-24T00:40:08.014Z,6.80
2019-03-24T00:42:34.772Z,5.87
2019-03-24T00:45:01.582Z,4.97
2019-03-24T00:47:28.985Z,5.90
2019-03-24T00:49:55.623Z,6.90
2019-03-24T00:52:22.244Z,6.70
2019-03-24T00:54:48.861Z,7.50
2019-03-24T00:57:15.559Z,4.73
2019-03-24T00:59:42.239Z,7.17
2019-03-24T01:02:08.996Z,6.57
2019-03-24T01:04:35.600Z,6.17
2019-03-24T01:07:02.613Z,5.93
2019-03-24T01:09:29.335Z,6.10
2019-03-24T01:11:56.105Z,5.30
2019-03-24T01:14:22.806Z,4.77
2019-03-24T01:16:49.404Z,6.70
2019-03-24T01:19:15.925Z,6.07
2019-03-24T01:21:42.783Z,7.03
2019-03-24T01:24:09.563Z,7.17
2019-03-24T01:26:36.143Z,7.30
2019-03-24T01:29:02.950Z,6.27
2019-03-24T01:31:29.953Z,6.73
2019-03-24T01:33:56.699Z,7.77
2019-03-24T01:36:23.415Z,6.60
2019-03-24T01:38:50.193Z,6.73
2019-03-24T01:41:17.002Z,8.47
2019-03-24T01:43:44.823Z,6.20
2019-03-24T01:46:11.494Z,7.37
2019-03-24T01:48:38.463Z,5.30
2019-03-24T01:51:05.713Z,6.47
2019-03-24T01:53:32.465Z,6.10
2019-03-24T01:55:59.107Z,6.33
2019-03-24T01:58:25.847Z,6.93
2019-03-24T02:00:52.497Z,7.07
2019-03-24T02:03:19.260Z,7.73
2019-03-24T02:05:46.091Z,7.90
2019-03-24T02:08:12.745Z,6.40
2019-03-24T02:10:39.494Z,6.83
2019-03-24T02:13:06.122Z,6.87
2019-03-24T02:15:32.933Z,7.97
2019-03-24T02:17:59.801Z,7.20
2019-03-24T02:20:26.444Z,6.20
2019-03-24T02:22:53.067Z,7.57
2019-03-24T02:25:19.787Z,7.30
2019-03-24T02:27:46.609Z,7.17
2019-03-24T02:30:13.614Z,6.67
2019-03-24T02:32:40.248Z,8.10
2019-03-24T02:35:07.906Z,7.67
2019-03-24T02:37:34.919Z,7.93
2019-03-24T02:40:04.316Z,8.57
2019-03-24T02:42:31.104Z,7.80
2019-03-24T02:44:57.857Z,6.83
2019-03-24T02:47:24.474Z,6.93
2019-03-24T02:49:51.170Z,6.23
2019-03-24T02:52:19.723Z,6.97
2019-03-24T02:54:46.470Z,6.70
2019-03-24T02:57:13.095Z,5.57
2019-03-24T02:59:39.719Z,7.57
2019-03-24T03:02:06.339Z,6.77
2019-03-24T03:04:33.147Z,8.23
2019-03-24T03:07:00.141Z,7.87
2019-03-24T03:09:26.881Z,7.20
2019-03-24T03:11:53.607Z,7.63
2019-03-24T03:14:20.421Z,7.40
2019-03-24T03:16:47.316Z,8.47
2019-03-24T03:19:13.959Z,7.47
2019-03-24T03:21:40.703Z,6.67
2019-03-24T03:24:07.504Z,8.27
2019-03-24T03:26:34.235Z,8.30
2019-03-24T03:29:01.001Z,7.37
2019-03-24T03:31:28.851Z,7.90
2019-03-24T03:33:55.505Z,6.83
2019-03-24T03:36:22.141Z,8.80
2019-03-24T03:38:48.811Z,8.03
2019-03-24T03:41:15.737Z,8.73
2019-03-24T03:43:42.480Z,7.97
2019-03-24T03:46:09.210Z,8.07
2019-03-24T03:48:35.850Z,7.60
2019-03-24T03:51:03.842Z,7.90
2019-03-24T03:53:30.494Z,8.57
2019-03-24T03:55:57.375Z,6.83
2019-03-24T03:58:24.213Z,7.13
2019-03-24T04:00:50.849Z,8.80
2019-03-24T04:03:17.595Z,8.30
2019-03-24T04:05:44.291Z,6.77
2019-03-24T04:08:11.004Z,7.17
2019-03-24T04:10:37.773Z,8.97
2019-03-24T04:13:04.480Z,7.00
2019-03-24T04:15:31.190Z,7.00
2019-03-24T04:17:57.820Z,7.37
2019-03-24T04:20:24.793Z,6.67
2019-03-24T04:22:51.385Z,7.80
2019-03-24T04:25:18.119Z,6.83
2019-03-24T04:27:45.287Z,5.93
2019-03-24T04:30:12.514Z,6.00
2019-03-24T04:32:39.280Z,6.33
2019-03-24T04:35:07.124Z,6.83
2019-03-24T04:37:33.858Z,7.53
2019-03-24T04:40:03.218Z,5.77
2019-03-24T04:42:29.998Z,7.70
2019-03-24T04:44:56.696Z,5.33
2019-03-24T04:47:23.466Z,5.87
2019-03-24T04:49:50.248Z,6.20
2019-03-24T04:52:16.876Z,7.13
2019-03-24T04:54:43.479Z,5.77
2019-03-24T04:57:10.176Z,6.77
2019-03-24T04:59:36.876Z,7.03
2019-03-24T05:02:03.607Z,5.80
2019-03-24T05:04:30.226Z,4.83
2019-03-24T05:06:57.730Z,4.80
2019-03-24T05:09:26.002Z,5.13
2019-03-24T05:11:52.580Z,6.43
2019-03-24T05:14:19.385Z,7.03
2019-03-24T05:16:45.990Z,5.60
2019-03-24T05:19:12.684Z,6.17
2019-03-24T05:21:39.363Z,7.40
2019-03-24T05:24:06.237Z,5.63
2019-03-24T05:26:34.038Z,5.90
2019-03-24T05:29:00.646Z,5.80
2019-03-24T05:31:27.379Z,6.20
2019-03-24T05:33:54.048Z,6.40
2019-03-24T05:36:20.901Z,6.17
2019-03-24T05:38:47.558Z,7.20
2019-03-24T05:41:14.126Z,8.20
2019-03-24T05:43:42.339Z,7.73
2019-03-24T05:46:09.188Z,6.73
2019-03-24T05:48:35.858Z,5.80
2019-03-24T05:51:02.715Z,6.83
2019-03-24T05:53:29.378Z,6.70
2019-03-24T05:55:56.168Z,6.33
2019-03-24T05:58:22.895Z,5.83
2019-03-24T06:00:49.635Z,8.70
2019-03-24T06:03:16.260Z,6.60
2019-03-24T06:05:42.894Z,7.50
2019-03-24T06:08:09.600Z,7.33
2019-03-24T06:10:36.226Z,9.10
2019-03-24T06:13:02.856Z,6.00
2019-03-24T06:15:29.393Z,5.63
2019-03-24T06:17:56.129Z,6.43
2019-03-24T06:20:23.054Z,6.43
2019-03-24T06:22:50.006Z,8.57
2019-03-24T06:25:16.647Z,9.93
2019-03-24T06:27:43.280Z,7.83
2019-03-24T06:30:10.484Z,7.23
2019-03-24T06:32:37.384Z,8.00
2019-03-24T06:35:06.208Z,6.40
2019-03-24T06:37:35.614Z,6.87
2019-03-24T06:40:06.246Z,7.30
2019-03-24T06:42:32.867Z,7.83
2019-03-24T06:44:59.606Z,7.10
2019-03-24T06:47:26.367Z,6.87
2019-03-24T06:49:53.256Z,7.13
2019-03-24T06:52:19.975Z,7.80
2019-03-24T06:54:46.844Z,8.07
2019-03-24T06:57:13.616Z,9.50
2019-03-24T06:59:40.284Z,7.70
2019-03-24T07:02:06.930Z,7.93
2019-03-24T07:04:33.680Z,7.30
2019-03-24T07:07:00.414Z,8.40
2019-03-24T07:09:27.039Z,8.97
2019-03-24T07:11:53.644Z,7.53
2019-03-24T07:14:20.208Z,8.43
2019-03-24T07:16:46.758Z,8.07
2019-03-24T07:19:14.537Z,9.53
2019-03-24T07:21:41.169Z,8.17
2019-03-24T07:24:07.873Z,7.63
2019-03-24T07:26:34.474Z,8.57
2019-03-24T07:29:01.372Z,9.03
2019-03-24T07:31:27.985Z,8.80
2019-03-24T07:33:54.632Z,9.43
2019-03-24T07:36:21.329Z,8.87
2019-03-24T07:38:48.084Z,7.20
2019-03-24T07:41:14.749Z,7.20
2019-03-24T07:43:41.379Z,8.70
2019-03-24T07:46:08.033Z,10.80
2019-03-24T07:48:34.691Z,9.93
2019-03-24T07:51:01.511Z,8.20
2019-03-24T07:53:28.591Z,8.80
2019-03-24T07:55:55.719Z,9.37
2019-03-24T07:58:22.799Z,8.87
2019-03-24T08:00:49.436Z,8.10
2019-03-24T08:03:16.312Z,9.90
2019-03-24T08:05:43.427Z,8.87
2019-03-24T08:08:10.331Z,10.33
2019-03-24T08:10:36.966Z,9.20
2019-03-24T08:13:03.926Z,8.43
2019-03-24T08:15:30.809Z,8.43
2019-03-24T08:17:57.577Z,9.00
2019-03-24T08:20:24.204Z,8.90
2019-03-24T08:22:51.096Z,9.77
2019-03-24T08:25:19.170Z,10.10
2019-03-24T08:27:46.327Z,10.10
2019-03-24T08:30:17.969Z,9.97
2019-03-24T08:32:44.696Z,9.40
2019-03-24T08:35:11.519Z,8.30
2019-03-24T08:37:38.181Z,10.17
2019-03-24T08:40:06.178Z,10.37
2019-03-24T08:42:32.821Z,8.17
2019-03-24T08:44:59.578Z,9.93
2019-03-24T08:47:26.326Z,8.90
2019-03-24T08:49:53.187Z,7.47
2019-03-24T08:52:21.158Z,9.27
2019-03-24T08:54:47.862Z,8.70
2019-03-24T08:57:14.728Z,8.87
2019-03-24T08:59:41.398Z,7.57
2019-03-24T09:02:08.515Z,7.60
2019-03-24T09:04:35.129Z,8.37
2019-03-24T09:07:01.750Z,7.27
2019-03-24T09:09:28.367Z,9.37
2019-03-24T09:11:55.779Z,8.33
2019-03-24T09:14:22.311Z,7.83
2019-03-24T09:16:48.993Z,8.77
2019-03-24T09:19:15.865Z,7.63
2019-03-24T09:21:42.578Z,8.27
2019-03-24T09:24:09.672Z,8.03
2019-03-24T09:26:36.386Z,8.63
2019-03-24T09:29:03.487Z,8.47
2019-03-24T09:31:30.570Z,8.63
2019-03-24T09:33:58.591Z,9.47
2019-03-24T09:36:25.904Z,9.13
2019-03-24T09:38:52.636Z,10.03
2019-03-24T09:41:19.389Z,7.87
2019-03-24T09:43:46.723Z,10.03
2019-03-24T09:46:15.351Z,8.37
2019-03-24T09:48:42.081Z,10.47
2019-03-24T09:51:08.927Z,8.43
2019-03-24T09:53:35.678Z,6.87
2019-03-24T09:56:03.049Z,8.20
2019-03-24T09:58:30.181Z,8.27
2019-03-24T10:00:56.859Z,8.63
2019-03-24T10:03:23.646Z,8.23
2019-03-24T10:05:50.414Z,8.83
2019-03-24T10:08:17.077Z,6.70
2019-03-24T10:10:52.243Z,8.77
2019-03-24T10:13:18.862Z,7.27
2019-03-24T10:15:45.464Z,7.13
2019-03-24T10:18:12.203Z,6.97
2019-03-24T10:20:38.829Z,8.33
2019-03-24T10:23:05.558Z,7.57
2019-03-24T10:25:33.225Z,8.50
2019-03-24T10:27:59.910Z,8.90
2019-03-24T10:30:26.605Z,6.63
2019-03-24T10:32:53.344Z,6.30
2019-03-24T10:35:19.974Z,7.30
2019-03-24T10:37:47.624Z,6.77
2019-03-24T10:40:14.460Z,5.30
2019-03-24T10:42:43.230Z,6.40
2019-03-24T10:45:10.133Z,7.93
2019-03-24T10:47:37.137Z,7.97
2019-03-24T10:50:08.040Z,6.20
2019-03-24T10:52:34.761Z,5.27
2019-03-24T10:55:07.927Z,7.03
2019-03-24T10:57:34.672Z,7.80
2019-03-24T11:00:02.231Z,11.63
2019-03-24T11:02:29.035Z,7.93
2019-03-24T11:04:57.071Z,6.10
2019-03-24T11:07:23.610Z,4.07
2019-03-24T11:09:50.140Z,7.20
2019-03-24T11:12:16.863Z,5.50
2019-03-24T11:14:43.628Z,6.07
2019-03-24T11:17:10.448Z,5.73
2019-03-24T11:19:37.129Z,4.60
2019-03-24T11:22:03.850Z,5.80
2019-03-24T11:24:30.703Z,6.97
2019-03-24T11:26:57.336Z,5.87
2019-03-24T11:29:24.248Z,4.43
2019-03-24T11:31:53.970Z,4.03
2019-03-24T11:34:20.681Z,4.23
2019-03-24T11:36:47.434Z,4.53
2019-03-24T11:39:14.090Z,5.37
2019-03-24T11:41:41.030Z,4.00
2019-03-24T11:44:08.872Z,10.80
2019-03-24T11:46:35.730Z,8.47
2019-03-24T11:49:02.458Z,6.20
2019-03-24T11:51:29.106Z,3.50
2019-03-24T11:53:55.764Z,4.30
2019-03-24T11:56:22.454Z,3.70
2019-03-24T11:58:49.111Z,4.13
2019-03-24T12:01:38.133Z,4.67
2019-03-24T12:03:59.350Z,4.77
2019-03-24T12:06:26.162Z,3.93
2019-03-24T12:08:52.954Z,5.97
2019-03-24T12:11:19.562Z,4.53
2019-03-24T12:13:46.225Z,4.73
2019-03-24T12:16:12.857Z,4.40
2019-03-24T12:18:39.542Z,3.03
2019-03-24T12:21:06.285Z,2.40
2019-03-24T12:23:33.067Z,3.80
2019-03-24T12:25:59.704Z,5.17
2019-03-24T12:28:26.420Z,7.13
2019-03-24T12:30:53.306Z,3.17
2019-03-24T12:33:19.904Z,5.57
2019-03-24T12:36:00.541Z,3.97
2019-03-24T12:38:27.094Z,3.13
2019-03-24T12:40:53.772Z,3.73
2019-03-24T12:43:20.638Z,3.40
2019-03-24T12:45:47.312Z,2.83
2019-03-24T12:48:14.156Z,2.20
2019-03-24T12:50:41.266Z,2.93
2019-03-24T12:53:08.067Z,3.53
2019-03-24T12:55:34.682Z,3.27
2019-03-24T12:58:01.322Z,3.23
2019-03-24T13:00:33.497Z,4.63
2019-03-24T13:03:00.440Z,2.50
2019-03-24T13:05:27.178Z,2.37
2019-03-24T13:07:57.650Z,2.07
2019-03-24T13:10:24.429Z,3.33
2019-03-24T13:12:51.115Z,2.43
2019-03-24T13:15:17.788Z,3.80
2019-03-24T13:17:44.521Z,4.27
2019-03-24T13:20:20.113Z,2.27
2019-03-24T13:22:41.250Z,2.77
2019-03-24T13:25:08.360Z,3.20
2019-03-24T13:27:35.029Z,3.67
2019-03-24T13:30:15.460Z,2.60
2019-03-24T13:32:42.302Z,4.67
2019-03-24T13:35:09.589Z,2.47
2019-03-24T13:37:36.205Z,2.80
2019-03-24T13:40:03.888Z,3.77
2019-03-24T13:42:30.656Z,3.40
2019-03-24T13:44:57.428Z,1.93
2019-03-24T13:47:24.179Z,2.40
2019-03-24T13:49:50.962Z,2.53
2019-03-24T13:52:17.934Z,2.50
2019-03-24T13:54:45.047Z,3.07
2019-03-24T13:57:11.760Z,3.80
2019-03-24T13:59:39.514Z,2.80
2019-03-24T14:02:06.915Z,3.13
2019-03-24T14:04:33.930Z,2.50
2019-03-24T14:07:03.867Z,2.67
2019-03-24T14:09:31.891Z,3.50
2019-03-24T14:12:00.015Z,3.20
2019-03-24T14:14:26.840Z,3.03
2019-03-24T14:16:56.841Z,2.97
2019-03-24T14:19:23.636Z,2.83
2019-03-24T14:21:50.295Z,2.30
2019-03-24T14:24:17.166Z,2.57
2019-03-24T14:26:45.074Z,2.83
2019-03-24T14:29:12.430Z,2.80
2019-03-24T14:31:39.067Z,3.00
2019-03-24T14:34:06.752Z,2.53
2019-03-24T14:36:33.390Z,2.87
2019-03-24T14:39:00.054Z,2.53
2019-03-24T14:41:27.086Z,2.17
2019-03-24T14:43:53.854Z,2.47
2019-03-24T14:46:20.984Z,2.40
2019-03-24T14:48:47.936Z,3.30
2019-03-24T14:51:20.815Z,3.03
2019-03-24T14:53:47.559Z,3.37
2019-03-24T14:56:16.603Z,2.40
2019-03-24T14:58:43.351Z,2.97
2019-03-24T15:01:10.276Z,2.73
2019-03-24T15:03:37.044Z,2.50
2019-03-24T15:06:04.026Z,3.43
2019-03-24T15:08:31.535Z,3.10
2019-03-24T15:10:59.448Z,3.50
2019-03-24T15:13:26.046Z,3.90
2019-03-24T15:15:53.015Z,3.87
2019-03-24T15:18:19.756Z,4.00
2019-03-24T15:20:48.182Z,3.70
2019-03-24T15:23:16.864Z,3.27
2019-03-24T15:25:44.193Z,3.23
2019-03-24T15:28:11.493Z,3.83
2019-03-24T15:30:38.403Z,3.30
2019-03-24T15:33:06.591Z,4.13
2019-03-24T15:35:34.809Z,3.80
2019-03-24T15:38:08.590Z,5.07
2019-03-24T15:40:31.786Z,3.20
2019-03-24T15:42:58.622Z,2.80
2019-03-24T15:45:26.668Z,2.93
2019-03-24T15:47:53.534Z,2.77
2019-03-24T15:50:25.342Z,4.70
2019-03-24T15:52:52.952Z,3.97
2019-03-24T15:55:21.078Z,4.83
2019-03-24T15:57:47.929Z,3.40
2019-03-24T16:00:18.839Z,4.33
2019-03-24T16:02:47.545Z,5.53
2019-03-24T16:05:14.333Z,3.37
2019-03-24T16:07:41.593Z,4.00
2019-03-24T16:10:09.061Z,4.43
2019-03-24T16:12:36.130Z,5.40
2019-03-24T16:15:05.711Z,3.83
2019-03-24T16:17:32.665Z,3.10
2019-03-24T16:19:59.417Z,2.70
2019-03-24T16:22:26.643Z,3.17
2019-03-24T16:24:53.488Z,4.03
2019-03-24T16:27:20.577Z,3.30
2019-03-24T16:29:47.526Z,2.77
2019-03-24T16:32:14.317Z,3.17
2019-03-24T16:34:41.915Z,3.50
2019-03-24T16:37:08.987Z,3.77
2019-03-24T16:39:38.333Z,4.23
2019-03-24T16:42:08.215Z,5.50
2019-03-24T16:44:37.328Z,4.57
2019-03-24T16:47:06.823Z,2.43
2019-03-24T16:49:36.625Z,2.90
2019-03-24T16:52:06.163Z,2.87
2019-03-24T16:54:35.527Z,3.03
2019-03-24T16:57:02.775Z,3.10
2019-03-24T16:59:33.953Z,4.10
2019-03-24T17:02:06.907Z,3.67
2019-03-24T17:04:34.148Z,6.90
2019-03-24T17:07:08.301Z,4.10
2019-03-24T17:09:53.871Z,2.47
2019-03-24T17:12:22.135Z,4.87
2019-03-24T17:14:49.541Z,4.20
2019-03-24T17:17:16.255Z,4.00
2019-03-24T17:19:43.285Z,3.20
2019-03-24T17:22:12.706Z,4.60
2019-03-24T17:24:40.460Z,4.27
2019-03-24T17:27:07.431Z,5.83
2019-03-24T17:29:36.459Z,4.37
2019-03-24T17:32:03.380Z,5.13
2019-03-24T17:34:30.057Z,26.83
2019-03-24T17:36:56.828Z,19.43
2019-03-24T17:39:23.511Z,4.17
2019-03-24T17:41:50.173Z,4.73
2019-03-24T17:44:17.952Z,4.30
2019-03-24T17:46:46.233Z,4.60
2019-03-24T17:49:14.800Z,4.63
2019-03-24T17:51:41.794Z,3.93
2019-03-24T17:54:09.221Z,4.93
2019-03-24T17:56:36.081Z,3.47
2019-03-24T17:59:03.628Z,3.70
2019-03-24T18:01:32.477Z,4.93
2019-03-24T18:04:00.934Z,4.97
2019-03-24T18:06:30.107Z,3.27
2019-03-24T18:08:57.314Z,4.80
2019-03-24T18:11:23.998Z,3.90
2019-03-24T18:13:53.712Z,3.77
2019-03-24T18:16:20.712Z,4.67
2019-03-24T18:18:47.864Z,3.70
2019-03-24T18:21:16.602Z,4.90
2019-03-24T18:23:44.549Z,4.53
2019-03-24T18:26:11.565Z,5.43
2019-03-24T18:28:39.846Z,5.13
2019-03-24T18:31:06.683Z,4.30
2019-03-24T18:33:34.526Z,3.23
2019-03-24T18:36:01.308Z,5.00
2019-03-24T18:38:28.063Z,4.13
2019-03-24T18:40:55.205Z,3.97
2019-03-24T18:43:22.116Z,5.17
2019-03-24T18:45:49.384Z,4.43
2019-03-24T18:48:16.433Z,5.43
2019-03-24T18:50:43.353Z,5.60
2019-03-24T18:53:10.280Z,7.30
2019-03-24T18:55:37.204Z,5.30
2019-03-24T18:58:04.062Z,4.03
2019-03-24T19:00:30.779Z,3.93
2019-03-24T19:02:58.064Z,5.27
2019-03-24T19:05:24.923Z,5.27
2019-03-24T19:07:51.703Z,5.57
2019-03-24T19:10:19.801Z,5.37
2019-03-24T19:12:46.938Z,5.43
2019-03-24T19:15:15.203Z,6.07
2019-03-24T19:17:42.059Z,5.43
2019-03-24T19:20:09.994Z,5.30
2019-03-24T19:22:37.021Z,5.20
2019-03-24T19:25:05.661Z,7.20
2019-03-24T19:27:32.293Z,8.53
2019-03-24T19:29:59.365Z,5.07
2019-03-24T19:32:26.561Z,4.47
2019-03-24T19:34:53.878Z,4.77
2019-03-24T19:37:20.780Z,4.53
2019-03-24T19:39:47.877Z,4.33
2019-03-24T19:42:14.707Z,4.07
2019-03-24T19:44:41.340Z,4.37
2019-03-24T19:47:08.263Z,3.67
2019-03-24T19:49:35.158Z,4.80
2019-03-24T19:52:02.218Z,3.50
2019-03-24T19:54:29.101Z,6.77
2019-03-24T19:56:55.750Z,4.00
2019-03-24T19:59:22.317Z,3.97
2019-03-24T20:01:49.446Z,4.77
2019-03-24T20:04:16.277Z,6.40
2019-03-24T20:06:42.951Z,4.80
2019-03-24T20:09:10.611Z,5.83
2019-03-24T20:11:37.486Z,5.87
2019-03-24T20:14:04.655Z,5.87
2019-03-24T20:16:31.448Z,6.83
2019-03-24T20:18:58.104Z,6.47
2019-03-24T20:21:24.926Z,5.83
2019-03-24T20:23:51.893Z,7.20
2019-03-24T20:26:18.899Z,6.67
2019-03-24T20:28:45.903Z,7.07
2019-03-24T20:31:12.738Z,6.57
2019-03-24T20:33:39.551Z,6.50
2019-03-24T20:36:06.245Z,6.47
2019-03-24T20:38:32.981Z,6.90
2019-03-24T20:41:13.323Z,6.33
2019-03-24T20:43:40.268Z,7.50
2019-03-24T20:46:07.229Z,6.77
2019-03-24T20:48:34.104Z,8.03
2019-03-24T20:51:00.923Z,7.47
2019-03-24T20:53:27.973Z,8.07
2019-03-24T20:55:54.705Z,6.27
2019-03-24T20:58:21.543Z,6.17
2019-03-24T21:00:48.406Z,6.87
2019-03-24T21:03:15.274Z,9.97
2019-03-24T21:05:42.420Z,6.00
2019-03-24T21:08:09.163Z,7.53
2019-03-24T21:10:36.019Z,5.40
2019-03-24T21:13:03.303Z,6.13
2019-03-24T21:15:30.307Z,5.90
2019-03-24T21:17:57.209Z,7.23
2019-03-24T21:20:23.917Z,7.13
2019-03-24T21:22:50.832Z,6.73
2019-03-24T21:25:17.682Z,7.67
2019-03-24T21:27:45.350Z,7.10
2019-03-24T21:30:12.503Z,7.13
2019-03-24T21:32:39.260Z,5.90
2019-03-24T21:35:06.743Z,7.07
2019-03-24T21:37:33.694Z,5.83
2019-03-24T21:40:00.726Z,5.17
2019-03-24T21:42:27.571Z,5.97
2019-03-24T21:44:54.245Z,5.77
2019-03-24T21:47:21.214Z,4.87
2019-03-24T21:49:47.956Z,7.00
2019-03-24T21:52:15.430Z,5.63
2019-03-24T21:54:42.086Z,5.83
2019-03-24T21:57:08.877Z,5.90
2019-03-24T21:59:35.635Z,5.43
2019-03-24T22:02:03.568Z,5.63
2019-03-24T22:04:30.357Z,4.70
2019-03-24T22:06:56.908Z,5.67
2019-03-24T22:09:23.860Z,4.97
2019-03-24T22:11:50.718Z,4.40
2019-03-24T22:14:17.488Z,5.43
2019-03-24T22:16:44.148Z,5.90
2019-03-24T22:19:10.786Z,5.80
2019-03-24T22:21:37.435Z,4.73
2019-03-24T22:24:04.163Z,6.60
2019-03-24T22:26:31.055Z,5.93
2019-03-24T22:28:57.699Z,5.93
2019-03-24T22:31:24.484Z,5.90
2019-03-24T22:33:51.246Z,5.73
2019-03-24T22:36:17.988Z,4.70
2019-03-24T22:38:46.354Z,6.00
2019-03-24T22:41:13.198Z,6.87
2019-03-24T22:43:39.973Z,5.57
2019-03-24T22:46:06.694Z,5.87
2019-03-24T22:48:34.572Z,7.57
2019-03-24T22:51:01.311Z,6.67
2019-03-24T22:53:28.180Z,6.63
2019-03-24T22:55:54.868Z,6.03
2019-03-24T22:58:21.496Z,6.93
2019-03-24T23:00:51.002Z,5.63
2019-03-24T23:03:17.856Z,5.60
2019-03-24T23:05:45.130Z,5.77
2019-03-24T23:08:11.784Z,6.07
2019-03-24T23:10:38.388Z,9.63
2019-03-24T23:13:04.990Z,12.63
2019-03-24T23:15:33.606Z,10.87
2019-03-24T23:18:00.412Z,8.90
2019-03-24T23:20:27.264Z,9.93
2019-03-24T23:22:54.056Z,9.17
2019-03-24T23:25:22.604Z,8.20
2019-03-24T23:27:51.547Z,9.60
2019-03-24T23:30:18.558Z,8.97
2019-03-24T23:32:45.622Z,9.37
2019-03-24T23:35:12.580Z,10.90
2019-03-24T23:37:39.243Z,10.23
2019-03-24T23:40:06.098Z,13.50
2019-03-24T23:42:32.878Z,14.97
2019-03-24T23:44:59.520Z,15.87
2019-03-24T23:47:26.246Z,18.47
2019-03-24T23:49:56.518Z,14.73
2019-03-24T23:52:24.879Z,20.37
2019-03-24T23:54:51.534Z,13.50
2019-03-24T23:57:18.835Z,15.43
2019-03-24T23:59:45.532Z,15.93
